Detall de PIREP

Printer-friendly versionPDF version

[2014/06/17 08:25:00]
Flight IATA:CT2209
Pilot Number:042
Company ICAO:CAT
Aircraft Type:F100/A
PAX:48
Aircraft Registration:PFJ
Departing Airport: LFQQ
Destination Airport: LFMP
Alternate Airport:LEGE
Online: VATSIM
Route:CMB UM728 LESDO UN872 KOVIN UM728 KUKOR UY27 SIJAN
Flight Level:F310
No Slew and time accel
No pause
Crash detect
Detect pilot in Cockpit between each 30 and 45 minutes
08:25 Zero fuel Weight: 81825 Lbs, Fuel Weight: 22683 Lbs
08:25 VATSIM:LFQQ 170800Z 01011KT 9999 BKN037 15/09 Q1024 NOSIG
08:25 VATSIM:LFMP 170800Z 31013KT 9999 FEW100 25/10 Q1014 NOSIG
08:30 Parking Brakes off
08:33 Take-off
08:33 Take off Weight: 104177 Lbs
08:33 Wind: 010º @ 011 Knots Heading: 074º
08:33 POS N50º 33´ 59´´ E003º 06´ 29´´
08:33 Gear Up: 168 Knots
08:33 Flaps:2 at 168 Knots
08:33 Flaps:1 at 171 Knots
08:33 Flaps:0 at 178 Knots
08:48 Wind:021º@042 Knots Heading: 214º Ground Speed: 446 Knots Altitude 28248 ft
08:49 TOC
08:49 Fuel Weight: 19946 Lb
09:03 Wind:025º@042 Knots Heading: 158º Ground Speed: 490 Knots Altitude 31210 ft
09:18 Wind:356º@027 Knots Heading: 181º Ground Speed: 490 Knots Altitude 31151 ft
09:23 TOD
09:23 Fuel Weight: 16892 Lb
09:33 Wind:313º@034 Knots Heading: 189º Ground Speed: 386 Knots Altitude 17969 ft
09:40 Flaps:1 at 216 Knots
09:41 Flaps:2 at 196 Knots
09:43 Gear Down: 179 Knots
09:43 Flaps:3 at 179 Knots
09:43 Flaps:4 at 179 Knots
09:43 Flaps:3 at 173 Knots
09:46 TouchDown:Rate -95 ft/min Speed: 143 Knots
09:46 VATSIM:LFMP 170930Z 33015KT 9999 FEW040 26/08 Q1014 NOSIG
09:46 Land
09:46 Wind:316º@015 Knots
09:46 Heading: 328º
09:46 Flight Duration: 01:13
09:46 Landing Weight: 97508 Lbs
09:46 POS N42º 44´ 44´´ E002º 52´ 07´´
09:48 Parking brakes on
09:48 Block to Block Duration: 01:18
09:48 Final Fuel: 15617 Lbls
09:48 Spent Fuel: 7065 Lbls
09:48 Flight Length: 510 NM
09:48 TOD Land Length: 131 NM

Exportar CSV

Powered by Drupal - Modified by Danger4k